Latest Weather Observations for Yanco

IDN60801

Issued at 9:35 pm EST Friday 1 August 2014 (issued every 30 minutes, with the page automatically refreshed every 10 minutes)

About weather observations | Map of weather stations | Latest weather observations for NSW | Other Formats
Station Details ID: 074037 Name: YANCO AGRICULTURAL INSTITUTE Lat: -34.62 Lon: 146.43 Height: 164.0 m
Data from the previous 72 hours. | See also: Recent months at Yanco
Date/Time
EST
Temp
°C
App
Temp
°C
Dew
Point
Rel
Hum
%
Delta-T
°C
Wind Press
QNH
hPa
Press
MSL
hPa
Rain
since 9 am
mm
Dir
 
Spd
km/h
Gust
km/h
Spd
kts
Gust
kts
01/09:30pm 4.8 -0.4 2.5 85 0.9 WSW 19 32 10 17 - - 1.2
01/09:00pm 5.1 -0.2 2.8 85 0.9 WSW 20 32 11 17 - - 1.2
01/08:30pm 5.5 -0.1 3.2 85 1.0 WSW 22 33 12 18 - - 1.2
01/08:00pm 5.7 0.4 3.2 84 1.0 WSW 20 28 11 15 - - 1.2
01/07:30pm 6.3 0.8 3.8 84 1.1 W 22 32 12 17 - - 1.2
01/07:00pm 6.3 0.8 4.0 85 1.0 W 22 30 12 16 - - 1.2
01/06:30pm 6.2 2.0 3.7 84 1.1 W 15 22 8 12 - - 1.2
01/06:00pm 6.6 1.7 3.9 83 1.2 W 19 32 10 17 - - 1.2
01/05:30pm 7.2 1.7 4.0 80 1.4 W 22 33 12 18 - - 1.2
01/05:00pm 6.4 2.3 4.2 86 1.0 W 15 20 8 11 - - 1.2
01/04:30pm 8.0 2.5 4.2 77 1.7 W 22 32 12 17 - - 0.6
01/04:00pm 8.8 3.1 4.8 76 1.8 W 24 35 13 19 - - 0.6
01/03:43pm 8.4 1.6 3.3 70 2.2 W 28 54 15 29 - - 0.2
01/03:30pm 9.1 2.6 2.7 64 2.7 W 26 43 14 23 - - 0.0
01/03:00pm 7.5 -2.3 3.2 74 1.8 W 44 69 24 37 - - 0.0
01/02:56pm 9.7 2.3 1.8 58 3.3 W 30 65 16 35 - - 0.0
01/02:30pm 10.4 2.4 1.8 55 3.7 W 33 50 18 27 - - 0.0
01/02:00pm 10.4 3.6 3.2 61 3.2 W 28 46 15 25 - - 0.0
01/01:30pm 9.1 3.5 5.5 78 1.6 WNW 24 33 13 18 - - 0.0
01/01:00pm 8.5 1.2 2.7 67 2.5 W 30 59 16 32 - - 0.0
01/12:58pm 9.5 2.5 1.9 59 3.2 W 28 59 15 32 - - 0.0
01/12:30pm 10.1 2.8 2.5 59 3.3 W 30 44 16 24 - - 0.0
01/12:00pm 10.7 4.0 3.5 61 3.2 W 28 44 15 24 - - 0.0
01/11:30am 9.4 2.1 2.7 63 2.9 W 30 44 16 24 - - 0.0
01/11:00am 9.9 4.6 3.2 63 2.9 W 20 35 11 19 - - 0.0
01/10:30am 9.2 3.7 4.0 70 2.3 WNW 22 35 12 19 - - 0.0
01/10:00am 8.3 2.4 4.1 75 1.8 WNW 24 35 13 19 - - 0.0
01/09:30am 7.3 2.5 4.4 82 1.3 WNW 19 26 10 14 - - 0.0
01/09:00am 6.6 2.2 4.6 87 0.9 WNW 17 30 9 16 - - 0.0
01/08:30am 5.7 1.3 4.7 93 0.4 NW 17 24 9 13 - - 0.0
01/08:00am 4.6 1.3 4.3 98 0.1 NW 11 17 6 9 - - 0.0
01/07:30am 3.4 0.2 3.3 99 0.0 NNW 9 13 5 7 - - 0.0
01/07:00am 3.1 0.2 2.5 96 0.2 NW 7 13 4 7 - - 0.0
01/06:30am 3.5 0.6 2.6 94 0.4 WNW 7 11 4 6 - - 0.0
01/06:00am 4.1 1.3 2.9 92 0.5 WNW 7 13 4 7 - - 0.0
01/05:30am 4.8 1.6 3.1 89 0.7 NW 9 13 5 7 - - 0.0
01/05:00am 5.1 1.9 3.1 87 0.8 NW 9 15 5 8 - - 0.0
01/04:30am 6.0 2.8 3.0 81 1.3 WNW 9 17 5 9 - - 0.0
01/04:00am 6.6 3.8 3.4 80 1.4 WNW 7 11 4 6 - - 0.0
01/03:30am 7.2 4.6 4.0 80 1.4 W 7 11 4 6 - - 0.0
01/03:00am 7.5 4.5 3.9 78 1.6 W 9 13 5 7 - - 0.0
01/02:30am 8.0 3.0 4.4 78 1.6 WSW 20 30 11 16 - - 0.0
01/02:00am 8.4 4.0 6.4 87 0.9 WSW 19 26 10 14 - - 0.0
01/01:30am 8.8 3.5 6.8 87 0.9 WSW 24 41 13 22 - - 0.0
01/01:00am 9.6 5.4 5.8 77 1.8 W 17 22 9 12 - - 0.0
01/12:30am 9.5 5.7 6.0 79 1.6 W 15 26 8 14 - - 0.0
01/12:00am 9.5 5.4 6.0 79 1.6 W 17 26 9 14 - - 0.0
 
Date/Time
EST
Temp
°C
App
Temp
°C
Dew
Point
Rel
Hum
%
Delta-T
°C
Wind Press
QNH
hPa
Press
MSL
hPa
Rain
since 9 am
mm
Dir
 
Spd
km/h
Gust
km/h
Spd
kts
Gust
kts
31/11:30pm 9.4 6.0 5.9 79 1.6 W 13 20 7 11 - - 0.0
31/11:00pm 9.1 5.7 5.8 80 1.5 WSW 13 20 7 11 - - 0.0
31/10:30pm 10.1 4.9 5.7 74 2.0 SW 22 33 12 18 - - 0.0
31/10:00pm 11.6 4.0 5.7 67 2.8 SW 35 46 19 25 - - 0.0
31/09:50pm 12.8 3.9 5.0 59 3.6 SW 41 50 22 27 - - 0.0
31/09:42pm 15.1 7.2 1.3 39 6.1 W 32 52 17 28 - - 0.0
31/09:30pm 15.5 9.4 0.1 35 6.6 NNW 22 30 12 16 - - 0.0
31/09:00pm 15.7 9.5 -0.1 34 6.8 NNW 22 30 12 16 - - 0.0
31/08:30pm 15.4 9.6 -0.4 34 6.7 NNW 20 28 11 15 - - 0.0
31/08:00pm 15.6 9.9 -0.6 33 6.9 N 19 26 10 14 - - 0.0
31/07:30pm 16.0 10.4 -0.2 33 6.9 N 19 30 10 16 - - 0.0
31/07:00pm 16.1 10.5 -0.2 33 7.0 N 19 28 10 15 - - 0.0
31/06:30pm 16.6 11.0 -0.1 32 7.2 N 19 26 10 14 - - 0.0
31/06:00pm 17.6 11.5 0.3 31 7.6 NNW 22 32 12 17 - - 0.0
31/05:30pm 18.1 12.4 0.3 30 7.8 NNW 20 30 11 16 - - 0.0
31/05:00pm 19.5 11.8 0.0 27 8.6 NNW 30 44 16 24 - - 0.0
31/04:33pm 20.1 12.9 0.5 27 8.8 NNW 28 46 15 25 - - 0.0
31/04:30pm 20.2 12.6 0.6 27 8.9 NNW 30 43 16 23 - - 0.0
31/04:00pm 20.7 13.3 1.6 28 8.8 NNW 30 50 16 27 - - 0.0
31/03:30pm 21.0 12.6 1.3 27 9.1 NNW 35 50 19 27 - - 0.0
31/03:06pm 21.1 13.1 1.4 27 9.1 NNW 33 52 18 28 - - 0.0
31/03:00pm 21.1 13.3 1.4 27 9.1 NNW 32 46 17 25 - - 0.0
31/02:33pm 21.2 13.3 2.5 29 8.8 NNW 33 52 18 28 - - 0.0
31/02:30pm 21.1 12.7 1.4 27 9.1 NNW 35 52 19 28 - - 0.0
31/02:00pm 20.7 11.7 2.5 30 8.6 NNW 39 54 21 29 - - 0.0
31/01:49pm 20.4 12.7 3.2 32 8.2 NNW 33 54 18 29 - - 0.0
31/01:30pm 20.3 12.7 3.9 34 7.9 NNW 33 50 18 27 - - 0.0
31/01:00pm 20.0 12.4 4.1 35 7.7 NNW 33 52 18 28 - - 0.0
31/12:48pm 20.0 13.0 4.1 35 7.7 NNW 30 52 16 28 - - 0.0
31/12:30pm 19.7 12.9 5.0 38 7.2 NW 30 41 16 22 - - 0.0
31/12:00pm 19.0 12.4 4.4 38 7.0 NNW 28 37 15 20 - - 0.0
31/11:30am 18.4 12.6 4.2 39 6.8 NNW 24 37 13 20 - - 0.0
31/11:00am 17.3 12.6 6.2 48 5.5 NNW 20 30 11 16 - - 0.0
31/10:30am 16.0 11.5 5.9 51 4.9 NNW 19 30 10 16 - - 0.0
31/10:00am 14.9 10.7 5.7 54 4.4 NNW 17 24 9 13 - - 0.0
31/09:30am 13.8 10.0 5.7 58 3.9 NNW 15 20 8 11 - - 0.0
31/09:00am 12.3 8.4 5.2 62 3.3 NNW 15 20 8 11 - - 0.0
31/08:30am 10.8 8.0 5.1 68 2.6 NNW 9 13 5 7 - - 0.0
31/08:00am 9.8 6.4 4.2 68 2.5 N 11 15 6 8 - - 0.0
31/07:30am 8.7 5.2 3.7 71 2.2 N 11 17 6 9 - - 0.0
31/07:00am 9.0 5.6 3.8 70 2.3 N 11 17 6 9 - - 0.0
31/06:30am 9.2 5.0 4.0 70 2.3 N 15 20 8 11 - - 0.0
31/06:00am 8.6 4.8 4.0 73 2.0 N 13 17 7 9 - - 0.0
31/05:30am 8.8 5.1 4.4 74 2.0 N 13 17 7 9 - - 0.0
31/05:00am 8.7 5.4 4.5 75 1.9 N 11 17 6 9 - - 0.0
31/04:30am 8.9 5.6 4.5 74 2.0 N 11 15 6 8 - - 0.0
31/04:00am 9.2 5.9 4.8 74 2.0 N 11 15 6 8 - - 0.0
31/03:30am 9.4 6.1 4.6 72 2.2 N 11 15 6 8 - - 0.0
31/03:00am 9.9 6.7 4.9 71 2.3 N 11 15 6 8 - - 0.0
31/02:30am 10.1 6.6 5.3 72 2.2 N 13 15 7 8 - - 0.0
31/02:00am 9.7 6.9 5.1 73 2.1 N 9 11 5 6 - - 0.0
31/01:30am 10.0 7.6 5.4 73 2.1 N 7 9 4 5 - - 0.0
31/01:00am 9.7 7.0 5.5 75 1.9 N 9 11 5 6 - - 0.0
31/12:30am 10.2 7.5 5.6 73 2.1 N 9 11 5 6 - - 0.0
31/12:00am 10.1 7.8 5.5 73 2.1 N 7 9 4 5 - - 0.0
 
Date/Time
EST
Temp
°C
App
Temp
°C
Dew
Point
Rel
Hum
%
Delta-T
°C
Wind Press
QNH
hPa
Press
MSL
hPa
Rain
since 9 am
mm
Dir
 
Spd
km/h
Gust
km/h
Spd
kts
Gust
kts
30/11:30pm 10.5 8.2 5.9 73 2.1 N 7 9 4 5 - - 0.0
30/11:00pm 10.6 8.6 6.2 74 2.1 N 6 7 3 4 - - 0.0
30/10:30pm 11.4 9.3 6.7 73 2.2 N 7 9 4 5 - - 0.0
30/10:00pm 11.1 9.0 6.8 75 2.1 N 7 9 4 5 - - 0.0
30/09:30pm 11.4 9.4 6.9 74 2.2 N 7 11 4 6 - - 0.0
30/09:00pm 11.9 9.5 7.0 72 2.4 N 9 11 5 6 - - 0.0
30/08:30pm 12.3 10.4 7.4 72 2.4 N 7 9 4 5 - - 0.0
30/08:00pm 12.5 10.3 7.8 73 2.3 N 9 11 5 6 - - 0.0
30/07:30pm 13.5 11.9 7.9 69 2.8 N 6 7 3 4 - - 0.0
30/07:00pm 14.0 12.3 8.2 68 2.9 NNW 7 9 4 5 - - 0.0
30/06:30pm 14.8 12.8 8.5 66 3.2 NNW 9 11 5 6 - - 0.0
30/06:00pm 15.6 13.6 8.8 64 3.5 NNW 9 11 5 6 - - 0.0
30/05:30pm 16.5 15.2 9.2 62 3.8 NW 6 7 3 4 - - 0.0
30/05:00pm 17.4 15.2 9.3 59 4.3 NW 11 13 6 7 - - 0.0
30/04:30pm 17.7 15.2 9.6 59 4.3 WNW 13 19 7 10 - - 0.0
30/04:00pm 18.3 15.0 9.4 56 4.7 NW 17 28 9 15 - - 0.0
30/03:30pm 18.4 14.4 9.2 55 4.9 WNW 20 30 11 16 - - 0.0
30/03:00pm 18.4 14.4 9.2 55 4.9 WNW 20 32 11 17 - - 0.0
30/02:30pm 19.2 14.7 10.2 56 4.9 WNW 24 33 13 18 - - 0.0
30/02:00pm 18.1 14.3 9.7 58 4.5 WNW 20 32 11 17 - - 0.0
30/01:30pm 17.7 13.9 9.8 60 4.2 WNW 20 33 11 18 - - 0.0
30/01:00pm 18.0 13.9 10.1 60 4.2 WNW 22 35 12 19 - - 0.0
30/12:30pm 17.6 14.6 10.5 63 3.8 W 17 24 9 13 - - 0.0
30/12:00pm 17.7 14.4 11.0 65 3.6 WNW 19 32 10 17 - - 0.0
30/11:30am 17.4 14.4 12.1 71 2.9 WNW 19 28 10 15 - - 0.0
30/11:00am 16.3 13.8 11.0 71 2.9 NW 15 22 8 12 - - 0.0
30/10:30am 14.2 10.9 9.6 74 2.4 NW 17 22 9 12 - - 0.0
30/10:00am 14.5 11.6 9.7 73 2.5 NW 15 20 8 11 - - 0.0
30/09:30am 13.3 10.3 9.4 77 2.0 NW 15 19 8 10 - - 0.0
30/09:00am 13.1 10.5 9.4 78 1.9 NW 13 20 7 11 - - 0.0
30/08:30am 12.1 9.7 8.8 80 1.7 NW 11 17 6 9 - - 0.0
30/08:00am 10.7 8.6 8.1 84 1.3 NW 9 13 5 7 - - 0.0
30/07:30am 10.0 8.2 7.8 86 1.1 N 7 9 4 5 - - 0.0
30/07:00am 10.8 8.6 7.9 82 1.4 NW 9 11 5 6 - - 0.0
30/06:30am 11.0 8.9 8.2 83 1.4 NW 9 13 5 7 - - 0.0
30/06:00am 10.9 8.8 8.1 83 1.4 NW 9 13 5 7 - - 0.0
30/05:30am 10.9 8.4 8.1 83 1.4 NW 11 13 6 7 - - 0.0
30/05:00am 11.4 9.4 8.6 83 1.4 NNW 9 11 5 6 - - 0.0
30/04:30am 11.3 9.6 8.3 82 1.5 NNW 7 9 4 5 - - 0.0
30/04:00am 11.3 9.6 8.2 81 1.5 NW 7 11 4 6 - - 0.0
30/03:30am 11.1 9.3 8.0 81 1.5 NNW 7 9 4 5 - - 0.0
30/03:00am 10.8 8.9 7.7 81 1.5 NNW 7 11 4 6 - - 0.0
30/02:30am 10.6 8.6 7.3 80 1.6 NNW 7 9 4 5 - - 0.0
30/02:00am 10.7 8.3 7.2 79 1.7 NW 9 11 5 6 - - 0.0
30/01:30am 10.6 7.8 7.1 79 1.7 NW 11 13 6 7 - - 0.0
30/01:00am 10.1 7.9 6.4 78 1.7 NNW 7 9 4 5 - - 0.0
30/12:30am 10.3 7.8 6.5 77 1.8 NW 9 11 5 6 - - 0.0
30/12:00am 10.1 8.0 5.9 75 2.0 NW 6 7 3 4 - - 0.0
 
Date/Time
EST
Temp
°C
App
Temp
°C
Dew
Point
Rel
Hum
%
Delta-T
°C
Wind Press
QNH
hPa
Press
MSL
hPa
Rain
since 9 am
mm
Dir
 
Spd
km/h
Gust
km/h
Spd
kts
Gust
kts
29/11:30pm 10.0 7.3 5.6 74 2.0 N 9 13 5 7 - - 0.0
29/11:00pm 10.6 8.2 5.4 70 2.4 NW 7 11 4 6 - - 0.0
29/10:30pm 11.9 9.3 6.2 68 2.7 WNW 9 15 5 8 - - 0.0
29/10:00pm 11.0 8.2 5.1 67 2.7 WNW 9 13 5 7 - - 0.0

Other Formats:

Comma delimited format used in spreadsheet applications
http://www.bom.gov.au/fwo/IDN60801/IDN60801.95705.axf

JavaScript Object Notation format (JSON) in row-major order
http://www.bom.gov.au/fwo/IDN60801/IDN60801.95705.json